Eugenia, Canada
Current Conditions -  °F | °C
As of 4:55 PM on Wednesday 17 Dec 2014 (Local Time) from CYBN Reporting Station
Unknown Precip Unknown Precip  
Wind Chill: 26°   Ceiling: 600
Heat Index: 34°   Visibility: 1mi
Dew Point: 32°   Wind: 10mph
Humidity: 93%   Direction: 300°WNW
Pressure: 29.87"   Gusts: 18mph
Location:  44.32°N, 80.53°W
Report Text: CYBN 172155Z AUTO 30009G16KT 1SM -UP VV006 01/00 A2987
Loading
Personal Weather Stations






























Interactive Weather Map New forecast layout! Learn more

10-Day Weather Forecast

Advertisements
Track Severe Weather on mobile